メインページ
METAR-TAF:

METAR-TAF

空港 :

ルサカ, ザンビア

ルサカ国際空港

緯度: 15-19-51S, 経度: 028-27-09E, 海抜: 1152m

現時点の気象観測

当レポートは1時間47分前の00:00(UTC)に作成
の風 7kt
気温 20°C
湿度 73%
気圧 1018 hPa
視程10km以上
1,500メートル以下は雲なし、積乱雲なし

METAR: FLKK 180000Z 08007KT CAVOK 20/15 Q1018

時間: 03:47 (01:47 UTC)

予報

当レポートは15時間47分前の10:00(UTC)に作成
予報は16日の 12時(UTC)から 17日の 18時(UTC)まで有効
の風 5kt
視程10km以上
高度3000ftの千切れ雲あり
確率 40% :
16日の 12時(UTC)から 16日の 14時(UTC)まで一時的に
視程: 8000m
雲はほとんどない , 積乱雲.
高度4000ftの千切れ雲あり
激しい雷雨, 雨
確率 30% :
17日の 00時(UTC)から 17日の 01時(UTC)まで一時的に
の風 10kt
視程: 8000m
高度2000ftの千切れ雲あり
小雨
17日の 12時(UTC)から 17日の 14時(UTC)まで徐々に
視程: 9000m
雲はほとんどない , 積乱雲.
高度3000ftの千切れ雲あり
激しい雷雨, 雨

TAF: FLKK 161000Z 1612/1718 09005KT 9999 BKN030 PROB40 TEMPO 1612/1614 8000 TSRA FEW///CB BKN040 PROB30 TEMPO 1700/1701 08010KT 8000 -RA BKN020 BECMG 1712/1714 9000 TSRA FEW///CB BKN030

4,000以上の空港の気象観測と天気予報(METAR報とTAF報)

利用可能な観測所は地図上に黄色い丸と赤い丸で示す。

丸の上にカーソルを重ねると観測所名を参照できる。

次にクリックすると気象観測と天気予報を参照できる。

マップの切り替え:黒色「×」印の緑ボタンをクリックして拡大、「-」印の緑ボタンをクリックして縮小、緑色の三角印をクリックして隣りの地図に切り替え


METAR-TAF: